Time;durP1;ratioP1;P1;durP2;ratioP2;P2;SDS_P1;SDS_P2;PMS_P1;PMS_P2;Temp;Humidity;BMP_temperature;BMP_pressure;BME280_temperature;BME280_humidity;BME280_pressure;Samples;Min_cycle;Max_cycle;Signal;HPM_P1;HPM_P2
2023/03/03 00:01:40;;;;;;;22.90;17.40;;;;;;;;;;5057784;28;20593;-80
2023/03/03 00:04:08;;;;;;;20.88;15.70;;;;;;;;;;5057955;28;20217;-81
2023/03/03 00:06:37;;;;;;;18.67;14.43;;;;;;;;;;5057773;28;20267;-78
2023/03/03 00:09:04;;;;;;;23.88;16.35;;;;;;;;;;5057898;28;20288;-81
2023/03/03 00:11:32;;;;;;;26.23;16.70;;;;;;;;;;5075815;28;20284;-80
2023/03/03 00:13:59;;;;;;;21.65;16.02;;;;;;;;;;5077791;28;20197;-81
2023/03/03 00:16:31;;;;;;;23.75;16.83;;;;;;;;;;5077550;28;20256;-80
2023/03/03 00:19:00;;;;;;;24.50;17.23;;;;;;;;;;5077675;28;20207;-81
2023/03/03 00:21:31;;;;;;;23.13;16.13;;;;;;;;;;5078067;28;20207;-81
2023/03/03 00:24:17;;;;;;;26.63;17.08;;;;;;;;;;5078003;28;20227;-80
2023/03/03 00:26:47;;;;;;;22.10;15.07;;;;;;;;;;5077154;28;20229;-80
2023/03/03 00:29:34;;;;;;;21.98;15.05;;;;;;;;;;5077416;28;20236;-80
2023/03/03 00:32:21;;;;;;;23.27;14.95;;;;;;;;;;5077178;28;20239;-79
2023/03/03 00:34:49;;;;;;;20.85;14.13;;;;;;;;;;5076374;28;20205;-81
2023/03/03 00:37:32;;;;;;;15.32;11.70;;;;;;;;;;5076902;28;20221;-79
2023/03/03 00:40:22;;;;;;;17.20;12.40;;;;;;;;;;5075875;28;20205;-80
2023/03/03 00:42:52;;;;;;;15.02;11.18;;;;;;;;;;5076766;28;20288;-80
2023/03/03 00:45:40;;;;;;;16.85;12.48;;;;;;;;;;5077312;28;20732;-79
2023/03/03 00:48:22;;;;;;;15.55;11.68;;;;;;;;;;5076744;28;20207;-80
2023/03/03 00:50:50;;;;;;;16.50;10.75;;;;;;;;;;5076773;28;20292;-81
2023/03/03 00:53:19;;;;;;;16.13;11.63;;;;;;;;;;5076377;28;20201;-80
2023/03/03 00:55:50;;;;;;;14.65;11.63;;;;;;;;;;5076496;28;20217;-79
2023/03/03 00:58:20;;;;;;;14.98;11.52;;;;;;;;;;5076790;28;20201;-81
2023/03/03 01:00:49;;;;;;;15.25;10.77;;;;;;;;;;5114176;22;20286;-83
2023/03/03 01:03:18;;;;;;;15.35;11.68;;;;;;;;;;5100679;28;20203;-83
2023/03/03 01:05:46;;;;;;;14.43;11.75;;;;;;;;;;5100266;28;20605;-83
2023/03/03 01:08:14;;;;;;;14.18;11.18;;;;;;;;;;5101275;28;20251;-83
2023/03/03 01:10:45;;;;;;;17.15;11.73;;;;;;;;;;5099606;28;20204;-83
2023/03/03 01:13:14;;;;;;;16.25;11.15;;;;;;;;;;5099745;28;20196;-82
2023/03/03 01:15:42;;;;;;;14.98;11.25;;;;;;;;;;5100477;28;20704;-82
2023/03/03 01:18:10;;;;;;;16.27;11.52;;;;;;;;;;5100352;28;20275;-82
2023/03/03 01:20:38;;;;;;;16.88;11.40;;;;;;;;;;5101334;28;20196;-83
2023/03/03 01:23:05;;;;;;;16.75;12.15;;;;;;;;;;5100600;28;20211;-83
2023/03/03 01:25:33;;;;;;;10.95;9.07;;;;;;;;;;5100736;28;20311;-82
2023/03/03 01:28:01;;;;;;;14.40;10.57;;;;;;;;;;5100202;28;20228;-83
2023/03/03 01:30:30;;;;;;;17.40;11.55;;;;;;;;;;5100428;28;20291;-83
2023/03/03 01:32:57;;;;;;;17.35;12.60;;;;;;;;;;5100374;28;20267;-83
2023/03/03 01:35:25;;;;;;;17.60;12.10;;;;;;;;;;5099898;28;20648;-82
2023/03/03 01:37:52;;;;;;;14.88;11.40;;;;;;;;;;5099569;28;20223;-83
2023/03/03 01:40:23;;;;;;;14.20;10.93;;;;;;;;;;5100375;28;20615;-82
2023/03/03 01:42:52;;;;;;;17.90;12.23;;;;;;;;;;5100559;28;20374;-83
2023/03/03 01:45:23;;;;;;;13.43;10.45;;;;;;;;;;5100153;28;20220;-82
2023/03/03 01:48:00;;;;;;;14.82;11.18;;;;;;;;;;5100556;28;20271;-83
2023/03/03 01:50:45;;;;;;;15.80;11.70;;;;;;;;;;5100383;28;20222;-82
2023/03/03 01:53:17;;;;;;;15.70;11.65;;;;;;;;;;5098703;28;20200;-82
2023/03/03 01:55:46;;;;;;;16.65;11.10;;;;;;;;;;5100293;28;20244;-83
2023/03/03 01:58:18;;;;;;;14.95;10.75;;;;;;;;;;5099830;28;20220;-83
2023/03/03 02:00:49;;;;;;;14.35;11.27;;;;;;;;;;5098946;28;20208;-83
2023/03/03 02:03:19;;;;;;;12.63;10.70;;;;;;;;;;5100442;28;20188;-83
2023/03/03 02:05:47;;;;;;;14.85;12.10;;;;;;;;;;5100149;28;20238;-83
2023/03/03 02:08:19;;;;;;;12.30;10.35;;;;;;;;;;5099857;28;20609;-83
2023/03/03 02:10:47;;;;;;;12.63;9.75;;;;;;;;;;5100155;28;20223;-83
2023/03/03 02:13:15;;;;;;;14.38;11.00;;;;;;;;;;5099273;28;20239;-84
2023/03/03 02:15:42;;;;;;;13.00;10.45;;;;;;;;;;5098945;28;20216;-83
2023/03/03 02:18:12;;;;;;;14.70;11.15;;;;;;;;;;5099641;28;20224;-83
2023/03/03 02:20:52;;;;;;;14.68;9.82;;;;;;;;;;5100297;28;20238;-83
2023/03/03 02:23:24;;;;;;;13.98;11.07;;;;;;;;;;5099109;28;20260;-82
2023/03/03 02:26:06;;;;;;;14.65;10.18;;;;;;;;;;5100179;28;20636;-83
2023/03/03 02:28:35;;;;;;;16.30;12.07;;;;;;;;;;5100143;28;20177;-82
2023/03/03 02:31:05;;;;;;;15.77;11.48;;;;;;;;;;5100050;28;20643;-83
2023/03/03 02:33:32;;;;;;;13.40;11.13;;;;;;;;;;5100402;28;20204;-82
2023/03/03 02:36:00;;;;;;;13.10;10.82;;;;;;;;;;5099672;28;20244;-82
2023/03/03 02:38:33;;;;;;;16.60;11.48;;;;;;;;;;5099978;28;20230;-82
2023/03/03 02:41:08;;;;;;;15.88;11.93;;;;;;;;;;5099810;28;20181;-82
2023/03/03 02:43:42;;;;;;;15.10;11.32;;;;;;;;;;5099631;28;20192;-82
2023/03/03 02:46:10;;;;;;;13.60;10.02;;;;;;;;;;5099665;28;20775;-82
2023/03/03 02:48:37;;;;;;;13.77;10.40;;;;;;;;;;5099380;28;20653;-83
2023/03/03 02:51:05;;;;;;;15.25;11.20;;;;;;;;;;5099265;28;20239;-82
2023/03/03 02:53:33;;;;;;;10.82;8.45;;;;;;;;;;5099699;28;20285;-82
2023/03/03 02:56:00;;;;;;;13.82;9.90;;;;;;;;;;5099327;28;20212;-83
2023/03/03 02:58:29;;;;;;;13.02;9.50;;;;;;;;;;5099327;28;20255;-82
2023/03/03 03:00:57;;;;;;;11.93;9.23;;;;;;;;;;5098699;28;20204;-83
2023/03/03 03:03:24;;;;;;;12.63;9.23;;;;;;;;;;5099577;28;20708;-83
2023/03/03 03:05:52;;;;;;;12.40;10.00;;;;;;;;;;5098613;28;20310;-83
2023/03/03 03:08:19;;;;;;;14.88;10.48;;;;;;;;;;5099180;28;20243;-83
2023/03/03 03:10:47;;;;;;;12.80;9.38;;;;;;;;;;5098389;28;20240;-83
2023/03/03 03:13:14;;;;;;;15.02;11.30;;;;;;;;;;5099421;28;20283;-83
2023/03/03 03:15:45;;;;;;;16.38;11.88;;;;;;;;;;5099136;28;20262;-84
2023/03/03 03:18:12;;;;;;;15.43;10.85;;;;;;;;;;5098865;28;20279;-83
2023/03/03 03:20:40;;;;;;;15.20;10.60;;;;;;;;;;5098395;28;20226;-82
2023/03/03 03:23:08;;;;;;;14.23;9.82;;;;;;;;;;5099284;28;20219;-83
2023/03/03 03:25:41;;;;;;;13.40;9.45;;;;;;;;;;5103186;22;20256;-82
2023/03/03 03:28:09;;;;;;;12.30;9.80;;;;;;;;;;5055804;28;20208;-81
2023/03/03 03:30:36;;;;;;;13.05;9.90;;;;;;;;;;5055456;28;20295;-81
2023/03/03 03:33:05;;;;;;;13.80;10.57;;;;;;;;;;5056036;28;20240;-83
2023/03/03 03:35:33;;;;;;;14.07;9.43;;;;;;;;;;5055416;28;20260;-82
2023/03/03 03:38:01;;;;;;;16.48;9.43;;;;;;;;;;5054899;28;20595;-82
2023/03/03 03:40:29;;;;;;;14.27;10.30;;;;;;;;;;5053952;28;20214;-82
2023/03/03 03:42:56;;;;;;;11.40;8.77;;;;;;;;;;5055960;28;20289;-81
2023/03/03 03:45:24;;;;;;;12.48;8.57;;;;;;;;;;5054424;28;20313;-82
2023/03/03 03:47:51;;;;;;;9.27;8.15;;;;;;;;;;5054754;28;20284;-82
2023/03/03 03:50:20;;;;;;;11.80;8.85;;;;;;;;;;5054398;28;20292;-81
2023/03/03 03:52:48;;;;;;;12.93;9.70;;;;;;;;;;5055301;28;20270;-82
2023/03/03 03:55:16;;;;;;;11.25;7.88;;;;;;;;;;5055533;28;20278;-81
2023/03/03 03:57:44;;;;;;;15.30;9.75;;;;;;;;;;5055637;28;20700;-81
2023/03/03 04:00:13;;;;;;;12.30;8.73;;;;;;;;;;5055303;28;20205;-81
2023/03/03 04:02:40;;;;;;;10.65;8.65;;;;;;;;;;5055341;28;20611;-81
2023/03/03 04:05:09;;;;;;;12.85;8.88;;;;;;;;;;5055180;28;20289;-82
2023/03/03 04:07:38;;;;;;;12.18;8.10;;;;;;;;;;5054948;28;20201;-81
2023/03/03 04:10:06;;;;;;;10.57;8.27;;;;;;;;;;5055158;28;20233;-82
2023/03/03 04:12:37;;;;;;;8.68;7.43;;;;;;;;;;5054949;28;20208;-82
2023/03/03 04:15:07;;;;;;;11.40;8.10;;;;;;;;;;5057940;28;20186;-81
2023/03/03 04:17:34;;;;;;;14.10;8.50;;;;;;;;;;5057712;28;20220;-82
2023/03/03 04:20:02;;;;;;;11.13;8.48;;;;;;;;;;5057439;28;20228;-81
2023/03/03 04:22:32;;;;;;;10.57;8.07;;;;;;;;;;5058300;28;20582;-82
2023/03/03 04:25:03;;;;;;;11.32;8.40;;;;;;;;;;5058216;28;20572;-82
2023/03/03 04:27:31;;;;;;;10.70;8.02;;;;;;;;;;5058569;28;20182;-82
2023/03/03 04:29:59;;;;;;;10.75;8.25;;;;;;;;;;5058657;28;20198;-82
2023/03/03 04:32:26;;;;;;;13.35;8.93;;;;;;;;;;5058777;28;20201;-81
2023/03/03 04:34:55;;;;;;;10.45;8.20;;;;;;;;;;5057043;28;20288;-82
2023/03/03 04:37:22;;;;;;;12.18;7.97;;;;;;;;;;5057374;28;20606;-82
2023/03/03 04:39:50;;;;;;;10.60;7.65;;;;;;;;;;5056608;28;20317;-81
2023/03/03 04:42:19;;;;;;;11.10;7.53;;;;;;;;;;5057662;28;20204;-81
2023/03/03 04:44:46;;;;;;;9.88;8.38;;;;;;;;;;5057706;28;20300;-81
2023/03/03 04:47:14;;;;;;;12.07;8.60;;;;;;;;;;5057138;28;20263;-81
2023/03/03 04:49:41;;;;;;;43.17;9.18;;;;;;;;;;5060712;28;20225;-81
2023/03/03 04:52:09;;;;;;;11.15;8.32;;;;;;;;;;5058690;28;20197;-82
2023/03/03 04:54:36;;;;;;;9.88;8.00;;;;;;;;;;5057889;28;20244;-81
2023/03/03 04:57:04;;;;;;;10.90;7.38;;;;;;;;;;5056863;28;20244;-81
2023/03/03 04:59:33;;;;;;;7.97;6.05;;;;;;;;;;5056382;28;20312;-81
2023/03/03 05:02:00;;;;;;;9.77;7.43;;;;;;;;;;5057002;28;20240;-82
2023/03/03 05:04:28;;;;;;;7.85;6.72;;;;;;;;;;5058677;28;20701;-82
2023/03/03 05:06:56;;;;;;;9.43;7.13;;;;;;;;;;5058419;28;20222;-82
2023/03/03 05:09:23;;;;;;;8.75;5.88;;;;;;;;;;5056774;28;20198;-81
2023/03/03 05:11:51;;;;;;;6.40;5.72;;;;;;;;;;5057174;28;20610;-81
2023/03/03 05:14:19;;;;;;;10.10;6.63;;;;;;;;;;5057170;28;20207;-81
2023/03/03 05:16:48;;;;;;;10.48;7.65;;;;;;;;;;5057339;28;20233;-82
2023/03/03 05:19:15;;;;;;;9.60;6.90;;;;;;;;;;5057098;28;20294;-82
2023/03/03 05:21:43;;;;;;;10.98;8.55;;;;;;;;;;5057159;28;20208;-82
2023/03/03 05:24:11;;;;;;;8.82;7.05;;;;;;;;;;5056671;28;20289;-82
2023/03/03 05:26:39;;;;;;;10.70;7.55;;;;;;;;;;5057259;28;20324;-82
2023/03/03 05:29:07;;;;;;;10.75;8.38;;;;;;;;;;5056585;28;20297;-82
2023/03/03 05:31:35;;;;;;;9.45;7.32;;;;;;;;;;5056528;28;20197;-81
2023/03/03 05:34:04;;;;;;;7.95;6.72;;;;;;;;;;5056077;28;20212;-82
2023/03/03 05:36:31;;;;;;;8.25;7.43;;;;;;;;;;5055420;28;20252;-81
2023/03/03 05:38:59;;;;;;;9.38;7.55;;;;;;;;;;5055736;28;20313;-82
2023/03/03 05:41:26;;;;;;;15.45;7.25;;;;;;;;;;5056508;28;20640;-81
2023/03/03 05:43:54;;;;;;;11.48;8.68;;;;;;;;;;5057167;28;20202;-81
2023/03/03 05:46:21;;;;;;;10.45;8.05;;;;;;;;;;5057795;28;20329;-81
2023/03/03 05:48:49;;;;;;;10.40;6.72;;;;;;;;;;5057738;28;20312;-82
2023/03/03 05:51:17;;;;;;;11.65;7.40;;;;;;;;;;5056935;28;20726;-81
2023/03/03 05:53:45;;;;;;;11.13;7.70;;;;;;;;;;5056773;28;20766;-81
2023/03/03 05:56:12;;;;;;;9.10;7.47;;;;;;;;;;5057238;28;20249;-82
2023/03/03 05:58:40;;;;;;;9.57;7.60;;;;;;;;;;5056756;28;20240;-81
2023/03/03 06:01:07;;;;;;;9.93;7.43;;;;;;;;;;5057028;28;20304;-81
2023/03/03 06:03:35;;;;;;;10.32;6.20;;;;;;;;;;5057312;28;20293;-81
2023/03/03 06:06:02;;;;;;;10.35;7.63;;;;;;;;;;5056156;28;20309;-82
2023/03/03 06:08:31;;;;;;;9.27;7.78;;;;;;;;;;5055806;28;20292;-81
2023/03/03 06:10:59;;;;;;;8.10;6.35;;;;;;;;;;5057474;28;20225;-82
2023/03/03 06:13:26;;;;;;;9.77;6.90;;;;;;;;;;5056817;28;20714;-81
2023/03/03 06:15:54;;;;;;;6.93;5.07;;;;;;;;;;5056740;28;20749;-81
2023/03/03 06:18:21;;;;;;;9.98;7.25;;;;;;;;;;5056565;28;20288;-81
2023/03/03 06:20:53;;;;;;;7.43;5.40;;;;;;;;;;5057932;28;20241;-83
2023/03/03 06:23:20;;;;;;;9.50;6.70;;;;;;;;;;5057231;28;20182;-81
2023/03/03 06:25:49;;;;;;;10.27;7.15;;;;;;;;;;5056334;28;20265;-82
2023/03/03 06:28:16;;;;;;;9.32;6.53;;;;;;;;;;5056199;28;20285;-81
2023/03/03 06:30:44;;;;;;;10.00;8.05;;;;;;;;;;5056573;28;20204;-80
2023/03/03 06:33:12;;;;;;;12.88;9.20;;;;;;;;;;5056360;28;20568;-81
2023/03/03 06:35:39;;;;;;;9.82;7.55;;;;;;;;;;5054229;28;20224;-81
2023/03/03 06:38:07;;;;;;;9.35;6.40;;;;;;;;;;5055398;28;20706;-81
2023/03/03 06:40:34;;;;;;;8.00;6.18;;;;;;;;;;5056399;28;20222;-82
2023/03/03 06:43:03;;;;;;;9.98;6.60;;;;;;;;;;5057250;28;20316;-81
2023/03/03 06:45:31;;;;;;;10.88;6.72;;;;;;;;;;5055992;28;20217;-82
2023/03/03 06:47:58;;;;;;;8.80;6.07;;;;;;;;;;5055517;28;20248;-81
2023/03/03 06:50:26;;;;;;;7.22;6.30;;;;;;;;;;5055343;28;20229;-81
2023/03/03 06:53:06;;;;;;;7.80;6.75;;;;;;;;;;5055570;28;20261;-81
2023/03/03 06:55:34;;;;;;;10.98;7.28;;;;;;;;;;5055486;28;20248;-81
2023/03/03 06:58:05;;;;;;;9.13;7.00;;;;;;;;;;5055479;28;20293;-81
2023/03/03 07:00:32;;;;;;;9.73;6.93;;;;;;;;;;5055375;28;20725;-82
2023/03/03 07:03:02;;;;;;;10.23;6.57;;;;;;;;;;5062923;28;20280;-81
2023/03/03 07:05:29;;;;;;;8.82;7.10;;;;;;;;;;5055132;28;20225;-80
2023/03/03 07:07:57;;;;;;;8.15;6.00;;;;;;;;;;5059332;28;20297;-82
2023/03/03 07:10:27;;;;;;;8.73;6.15;;;;;;;;;;5057864;28;20225;-82
2023/03/03 07:12:57;;;;;;;8.60;7.22;;;;;;;;;;5055290;28;20197;-82
2023/03/03 07:15:33;;;;;;;9.50;7.47;;;;;;;;;;5055729;28;20584;-82
2023/03/03 07:18:01;;;;;;;9.07;6.28;;;;;;;;;;5055401;28;20190;-81
2023/03/03 07:20:34;;;;;;;8.30;6.00;;;;;;;;;;5055130;28;20225;-81
2023/03/03 07:23:02;;;;;;;6.40;5.80;;;;;;;;;;5055049;28;20559;-81
2023/03/03 07:25:34;;;;;;;10.65;5.75;;;;;;;;;;5055023;28;20256;-81
2023/03/03 07:28:23;;;;;;;7.55;5.75;;;;;;;;;;5055280;28;20185;-82
2023/03/03 07:30:53;;;;;;;7.40;5.82;;;;;;;;;;5055396;28;20188;-82
2023/03/03 07:33:27;;;;;;;7.13;5.53;;;;;;;;;;5055524;28;20297;-81
2023/03/03 07:35:56;;;;;;;8.15;6.53;;;;;;;;;;5054571;28;20231;-81
2023/03/03 07:38:34;;;;;;;8.95;6.53;;;;;;;;;;5054146;28;20201;-81
2023/03/03 07:41:04;;;;;;;10.52;7.30;;;;;;;;;;5055248;28;20202;-82
2023/03/03 07:43:36;;;;;;;7.65;6.22;;;;;;;;;;5055227;28;20301;-81
2023/03/03 07:46:22;;;;;;;7.25;5.30;;;;;;;;;;5055514;28;20226;-83
2023/03/03 07:48:50;;;;;;;10.45;6.88;;;;;;;;;;5057770;28;20206;-81
2023/03/03 07:51:24;;;;;;;11.45;7.05;;;;;;;;;;5059265;28;20200;-82
2023/03/03 07:53:52;;;;;;;8.38;5.45;;;;;;;;;;5058482;28;20703;-82
2023/03/03 07:56:29;;;;;;;7.20;6.15;;;;;;;;;;5058836;28;20221;-82
2023/03/03 07:58:57;;;;;;;6.57;5.65;;;;;;;;;;5058473;28;20284;-81
2023/03/03 08:01:39;;;;;;;9.55;7.45;;;;;;;;;;5058688;28;20248;-81
2023/03/03 08:04:19;;;;;;;8.32;6.40;;;;;;;;;;5058463;28;20194;-81
2023/03/03 08:06:55;;;;;;;10.05;7.25;;;;;;;;;;5057959;28;20777;-81
2023/03/03 08:09:49;;;;;;;11.27;7.32;;;;;;;;;;5058402;28;20202;-81
2023/03/03 08:12:34;;;;;;;7.85;6.03;;;;;;;;;;5039654;28;20241;-82
2023/03/03 08:15:23;;;;;;;8.05;5.97;;;;;;;;;;5038723;28;20193;-81
2023/03/03 08:17:54;;;;;;;8.98;6.90;;;;;;;;;;5038213;28;20198;-81
2023/03/03 08:20:46;;;;;;;9.57;6.05;;;;;;;;;;5038504;28;20197;-81
2023/03/03 08:23:16;;;;;;;8.52;5.97;;;;;;;;;;5038709;28;20595;-82
2023/03/03 08:25:44;;;;;;;7.88;5.47;;;;;;;;;;5037843;28;20231;-82
2023/03/03 08:28:12;;;;;;;7.97;6.22;;;;;;;;;;5037990;28;20654;-81
2023/03/03 08:30:41;;;;;;;10.60;6.78;;;;;;;;;;5038233;28;20214;-82
2023/03/03 08:33:09;;;;;;;8.82;6.75;;;;;;;;;;5038318;28;20233;-81
2023/03/03 08:35:37;;;;;;;8.30;6.40;;;;;;;;;;5037744;28;20226;-81
2023/03/03 08:38:05;;;;;;;7.43;5.80;;;;;;;;;;5036767;28;20721;-83
2023/03/03 08:40:33;;;;;;;8.63;6.00;;;;;;;;;;5037662;28;20202;-81
2023/03/03 08:43:01;;;;;;;6.75;5.15;;;;;;;;;;5038335;28;20209;-82
2023/03/03 08:45:29;;;;;;;7.65;6.15;;;;;;;;;;5038607;28;20233;-83
2023/03/03 08:47:58;;;;;;;7.70;5.90;;;;;;;;;;5039145;28;20237;-82
2023/03/03 08:50:28;;;;;;;8.27;6.47;;;;;;;;;;5038485;28;20206;-83
2023/03/03 08:52:55;;;;;;;10.07;6.85;;;;;;;;;;5038453;28;20206;-82
2023/03/03 08:55:23;;;;;;;9.90;8.05;;;;;;;;;;5038360;28;20222;-83
2023/03/03 08:57:50;;;;;;;8.20;7.32;;;;;;;;;;5038427;28;20241;-84
2023/03/03 09:00:20;;;;;;;12.80;10.02;;;;;;;;;;5037285;28;20285;-85
2023/03/03 09:02:49;;;;;;;22.45;15.80;;;;;;;;;;5038226;28;20226;-84
2023/03/03 09:05:17;;;;;;;11.77;8.68;;;;;;;;;;5036337;28;20209;-84
2023/03/03 09:07:47;;;;;;;10.77;9.25;;;;;;;;;;5036426;28;20192;-84
2023/03/03 09:10:21;;;;;;;19.25;14.25;;;;;;;;;;5037854;28;20276;-84
2023/03/03 09:12:49;;;;;;;8.88;7.80;;;;;;;;;;5037724;28;20187;-85
2023/03/03 09:15:23;;;;;;;11.77;9.00;;;;;;;;;;5037482;28;20213;-85
2023/03/03 09:17:51;;;;;;;13.25;10.20;;;;;;;;;;5038172;28;20237;-84
2023/03/03 09:20:37;;;;;;;10.57;7.65;;;;;;;;;;5036887;28;20198;-84
2023/03/03 09:23:32;;;;;;;9.32;7.00;;;;;;;;;;5035618;28;20253;-84
2023/03/03 09:26:25;;;;;;;7.13;5.72;;;;;;;;;;5036786;28;20269;-85
2023/03/03 09:28:54;;;;;;;6.55;5.40;;;;;;;;;;5035583;28;20233;-85
2023/03/03 09:31:31;;;;;;;6.65;5.60;;;;;;;;;;5041016;28;20227;-84
2023/03/03 09:33:58;;;;;;;5.28;4.72;;;;;;;;;;5055162;28;20262;-83
2023/03/03 09:36:28;;;;;;;8.50;7.63;;;;;;;;;;5054651;28;20228;-84
2023/03/03 09:38:58;;;;;;;6.25;5.50;;;;;;;;;;5054510;28;20228;-84
2023/03/03 09:41:47;;;;;;;7.65;6.32;;;;;;;;;;5055299;28;20823;-85
2023/03/03 09:44:41;;;;;;;7.93;5.38;;;;;;;;;;5055562;28;20196;-86
2023/03/03 09:47:23;;;;;;;8.10;6.05;;;;;;;;;;5055227;28;20221;-83
2023/03/03 09:50:01;;;;;;;5.93;5.13;;;;;;;;;;5055393;28;20387;-85
2023/03/03 09:52:38;;;;;;;6.25;4.97;;;;;;;;;;5055586;28;20188;-85
2023/03/03 09:55:22;;;;;;;8.75;5.90;;;;;;;;;;5054829;28;20181;-85
2023/03/03 09:58:06;;;;;;;7.25;5.85;;;;;;;;;;5055180;28;20276;-86
2023/03/03 10:00:45;;;;;;;6.38;5.22;;;;;;;;;;5055020;28;20189;-86
2023/03/03 10:04:11;;;;;;;7.50;5.95;;;;;;;;;;5054496;28;20584;-85
2023/03/03 10:06:43;;;;;;;8.10;6.20;;;;;;;;;;5028936;28;20308;-83
2023/03/03 10:09:37;;;;;;;6.60;5.13;;;;;;;;;;5054230;28;20196;-86
2023/03/03 10:12:13;;;;;;;13.85;8.55;;;;;;;;;;5054885;28;20197;-86
2023/03/03 10:15:04;;;;;;;9.10;7.18;;;;;;;;;;5054525;28;20189;-85
2023/03/03 10:17:43;;;;;;;6.47;5.18;;;;;;;;;;5054549;28;20216;-84
2023/03/03 10:20:37;;;;;;;6.07;4.88;;;;;;;;;;5054258;28;20196;-85
2023/03/03 10:23:19;;;;;;;8.18;6.38;;;;;;;;;;5054880;28;20662;-86
2023/03/03 10:26:00;;;;;;;6.15;4.88;;;;;;;;;;5054022;28;20241;-85
2023/03/03 10:28:59;;;;;;;12.68;10.95;;;;;;;;;;5054199;28;20197;-85
2023/03/03 10:31:38;;;;;;;7.32;5.85;;;;;;;;;;5054249;28;20194;-85
2023/03/03 10:34:19;;;;;;;7.03;4.80;;;;;;;;;;5054385;28;20192;-83
2023/03/03 10:36:55;;;;;;;6.68;5.75;;;;;;;;;;5053720;28;20692;-85
2023/03/03 10:39:56;;;;;;;4.85;3.75;;;;;;;;;;5053789;28;20229;-84
2023/03/03 10:42:44;;;;;;;5.30;4.78;;;;;;;;;;5054764;28;20205;-86
2023/03/03 10:45:55;;;;;;;6.28;4.82;;;;;;;;;;5053625;28;20209;-85
2023/03/03 10:48:42;;;;;;;5.30;4.50;;;;;;;;;;5054163;28;20206;-85
2023/03/03 10:51:22;;;;;;;4.22;3.83;;;;;;;;;;5054038;28;20276;-85
2023/03/03 10:54:00;;;;;;;5.13;4.35;;;;;;;;;;5053626;28;20273;-84
2023/03/03 10:56:38;;;;;;;6.82;6.15;;;;;;;;;;5054086;28;20256;-85
2023/03/03 10:59:20;;;;;;;6.18;5.25;;;;;;;;;;5054264;28;20661;-85
2023/03/03 11:01:56;;;;;;;6.85;5.45;;;;;;;;;;5053889;28;20225;-86
2023/03/03 11:04:41;;;;;;;9.95;8.80;;;;;;;;;;5053891;28;20186;-84
2023/03/03 11:07:12;;;;;;;5.60;4.25;;;;;;;;;;5053627;28;20226;-85
2023/03/03 11:09:56;;;;;;;4.65;4.25;;;;;;;;;;5054001;28;20534;-84
2023/03/03 11:12:33;;;;;;;6.22;5.10;;;;;;;;;;5053876;28;20190;-86
2023/03/03 11:15:27;;;;;;;8.48;5.57;;;;;;;;;;5054309;28;20205;-86
2023/03/03 11:18:12;;;;;;;6.68;4.90;;;;;;;;;;5053781;28;20251;-85
2023/03/03 11:20:46;;;;;;;6.43;5.45;;;;;;;;;;5053906;28;20215;-85
2023/03/03 11:23:50;;;;;;;12.27;9.70;;;;;;;;;;5055817;28;20646;-84
2023/03/03 11:26:28;;;;;;;10.88;6.45;;;;;;;;;;5049050;28;20229;-84
2023/03/03 11:29:10;;;;;;;11.65;9.25;;;;;;;;;;5059737;28;20705;-84
2023/03/03 11:31:44;;;;;;;10.63;8.18;;;;;;;;;;5059438;28;20185;-85
2023/03/03 11:34:26;;;;;;;7.65;6.65;;;;;;;;;;5059251;28;20268;-87
2023/03/03 11:36:57;;;;;;;4.38;3.97;;;;;;;;;;5059276;28;20213;-88
2023/03/03 11:39:27;;;;;;;5.05;4.10;;;;;;;;;;5060157;28;20349;-88
2023/03/03 11:42:04;;;;;;;6.43;5.82;;;;;;;;;;5082581;28;20201;-86
2023/03/03 11:44:37;;;;;;;15.13;13.48;;;;;;;;;;5081351;28;20268;-85
2023/03/03 11:47:14;;;;;;;8.30;6.45;;;;;;;;;;5067939;28;20241;-85
2023/03/03 11:49:48;;;;;;;5.68;5.10;;;;;;;;;;5059331;28;20273;-85
2023/03/03 11:52:25;;;;;;;5.22;3.80;;;;;;;;;;5061330;28;20273;-87
2023/03/03 11:54:56;;;;;;;4.63;4.07;;;;;;;;;;5061073;28;20623;-86
2023/03/03 11:57:28;;;;;;;5.90;4.28;;;;;;;;;;5061765;28;20334;-86
2023/03/03 12:00:12;;;;;;;6.82;5.65;;;;;;;;;;5060356;28;20205;-86
2023/03/03 12:03:18;;;;;;;5.30;4.80;;;;;;;;;;5059644;28;20268;-86
2023/03/03 12:06:00;;;;;;;6.15;4.95;;;;;;;;;;5059163;28;20244;-85
2023/03/03 12:08:39;;;;;;;4.78;4.07;;;;;;;;;;5058391;28;20205;-85
2023/03/03 12:11:12;;;;;;;5.13;4.47;;;;;;;;;;5059548;28;20288;-87
2023/03/03 12:13:50;;;;;;;4.00;3.50;;;;;;;;;;5059680;28;20205;-87
2023/03/03 12:16:28;;;;;;;6.68;5.35;;;;;;;;;;5060541;28;20226;-86
2023/03/03 12:19:07;;;;;;;6.53;4.80;;;;;;;;;;5060150;28;20182;-86
2023/03/03 12:21:50;;;;;;;7.50;6.10;;;;;;;;;;5060721;28;20196;-87
2023/03/03 12:24:30;;;;;;;5.82;5.10;;;;;;;;;;5060270;28;20301;-84
2023/03/03 12:27:11;;;;;;;5.13;4.50;;;;;;;;;;5061040;28;20279;-84
2023/03/03 12:29:45;;;;;;;8.65;6.60;;;;;;;;;;5057254;28;20209;-84
2023/03/03 12:32:26;;;;;;;5.55;4.78;;;;;;;;;;5056349;28;20650;-84
2023/03/03 12:34:58;;;;;;;5.20;4.60;;;;;;;;;;5054261;28;20213;-84
2023/03/03 12:37:53;;;;;;;5.55;5.03;;;;;;;;;;5055723;28;20681;-84
2023/03/03 12:40:24;;;;;;;7.90;5.90;;;;;;;;;;5061225;28;20204;-84
2023/03/03 12:43:33;;;;;;;6.50;4.68;;;;;;;;;;5075859;28;20194;-84
2023/03/03 12:46:06;;;;;;;5.38;4.50;;;;;;;;;;5013288;28;20219;-84
2023/03/03 12:48:40;;;;;;;5.25;4.53;;;;;;;;;;5064920;28;20211;-82
2023/03/03 12:51:19;;;;;;;6.28;4.85;;;;;;;;;;5077192;28;20267;-83
2023/03/03 12:54:19;;;;;;;5.75;5.15;;;;;;;;;;5077035;28;20273;-83
2023/03/03 12:56:51;;;;;;;13.82;8.70;;;;;;;;;;5066362;28;20216;-84
2023/03/03 12:59:25;;;;;;;8.38;6.18;;;;;;;;;;5077387;28;20283;-84
2023/03/03 13:02:18;;;;;;;6.22;5.18;;;;;;;;;;5077240;28;20582;-84
2023/03/03 13:04:51;;;;;;;10.93;8.02;;;;;;;;;;5075583;28;20216;-82
2023/03/03 13:07:22;;;;;;;8.00;6.65;;;;;;;;;;5075799;28;20657;-83
2023/03/03 13:10:07;;;;;;;9.02;5.97;;;;;;;;;;5070164;28;20295;-84
2023/03/03 13:12:40;;;;;;;6.88;6.05;;;;;;;;;;5057939;28;20281;-84
2023/03/03 13:15:16;;;;;;;8.45;6.00;;;;;;;;;;5057576;28;20186;-83
2023/03/03 13:17:56;;;;;;;6.90;5.68;;;;;;;;;;5058890;28;20178;-83
2023/03/03 13:20:37;;;;;;;10.90;9.00;;;;;;;;;;5059413;28;20193;-85
2023/03/03 13:23:10;;;;;;;7.60;6.80;;;;;;;;;;5058373;28;20237;-84
2023/03/03 13:25:50;;;;;;;9.20;7.35;;;;;;;;;;5059275;28;20257;-84
2023/03/03 13:28:26;;;;;;;9.77;6.47;;;;;;;;;;5058961;28;20300;-84
2023/03/03 13:30:58;;;;;;;7.05;5.57;;;;;;;;;;5059652;28;20185;-83
2023/03/03 13:33:27;;;;;;;9.13;5.93;;;;;;;;;;5058347;28;20277;-83
2023/03/03 13:35:57;;;;;;;7.28;6.50;;;;;;;;;;5055492;28;20222;-85
2023/03/03 13:38:28;;;;;;;8.77;6.20;;;;;;;;;;5054801;28;20528;-84
2023/03/03 13:41:05;;;;;;;8.70;6.90;;;;;;;;;;5055591;28;20209;-85
2023/03/03 13:43:38;;;;;;;6.13;4.85;;;;;;;;;;5055587;28;20205;-85
2023/03/03 13:46:13;;;;;;;6.85;5.97;;;;;;;;;;5055738;28;20226;-84
2023/03/03 13:48:53;;;;;;;9.20;6.60;;;;;;;;;;5055254;28;20229;-83
2023/03/03 13:51:38;;;;;;;7.05;5.70;;;;;;;;;;5056288;28;20268;-83
2023/03/03 13:54:16;;;;;;;8.15;6.30;;;;;;;;;;5056228;28;20558;-84
2023/03/03 13:57:05;;;;;;;10.07;6.88;;;;;;;;;;5056392;28;20558;-83
2023/03/03 13:59:44;;;;;;;7.68;6.28;;;;;;;;;;5059061;28;20228;-84
2023/03/03 14:02:39;;;;;;;6.15;4.85;;;;;;;;;;5057998;28;20189;-84
2023/03/03 14:05:16;;;;;;;8.23;5.47;;;;;;;;;;5055710;28;20206;-83
2023/03/03 14:07:48;;;;;;;7.95;6.10;;;;;;;;;;5055698;28;20196;-85
2023/03/03 14:10:21;;;;;;;8.25;6.18;;;;;;;;;;5055771;28;20647;-83
2023/03/03 14:12:55;;;;;;;7.47;5.65;;;;;;;;;;5054550;28;20186;-83
2023/03/03 14:15:26;;;;;;;7.45;6.05;;;;;;;;;;5053894;28;20221;-83
2023/03/03 14:18:11;;;;;;;8.55;5.65;;;;;;;;;;5053941;28;20205;-83
2023/03/03 14:20:44;;;;;;;8.45;7.32;;;;;;;;;;5053997;28;20182;-83
2023/03/03 14:23:19;;;;;;;9.30;6.85;;;;;;;;;;5054182;28;20274;-83
2023/03/03 14:25:58;;;;;;;10.50;7.15;;;;;;;;;;5054402;28;20651;-83
2023/03/03 14:28:29;;;;;;;9.48;7.53;;;;;;;;;;5053030;28;20206;-83
2023/03/03 14:30:58;;;;;;;9.73;7.15;;;;;;;;;;5054412;28;20710;-84
2023/03/03 14:33:31;;;;;;;10.50;7.45;;;;;;;;;;5054815;28;20205;-83
2023/03/03 14:36:14;;;;;;;11.32;7.85;;;;;;;;;;5053244;28;20295;-83
2023/03/03 14:38:51;;;;;;;10.60;7.93;;;;;;;;;;5053552;28;20668;-83
2023/03/03 14:41:22;;;;;;;12.48;11.05;;;;;;;;;;5053739;28;20209;-85
2023/03/03 14:44:02;;;;;;;9.82;7.47;;;;;;;;;;5054509;28;20213;-83
2023/03/03 14:46:40;;;;;;;8.43;6.40;;;;;;;;;;5054045;28;20629;-83
2023/03/03 14:49:16;;;;;;;9.68;6.53;;;;;;;;;;5054188;28;20213;-84
2023/03/03 14:51:46;;;;;;;8.10;6.93;;;;;;;;;;5054447;28;20276;-84
2023/03/03 14:54:26;;;;;;;9.07;6.47;;;;;;;;;;5053857;28;20281;-83
2023/03/03 14:57:02;;;;;;;8.05;6.57;;;;;;;;;;5052959;28;20742;-83
2023/03/03 14:59:32;;;;;;;8.63;6.35;;;;;;;;;;5052882;28;20189;-83
2023/03/03 15:02:36;;;;;;;8.82;6.82;;;;;;;;;;5053980;28;20203;-84
2023/03/03 15:05:19;;;;;;;8.77;6.90;;;;;;;;;;5030133;28;20316;-86
2023/03/03 15:07:50;;;;;;;11.00;9.85;;;;;;;;;;5057492;28;20182;-85
2023/03/03 15:10:33;;;;;;;10.38;8.00;;;;;;;;;;5056308;28;20190;-86
2023/03/03 15:13:28;;;;;;;10.38;7.78;;;;;;;;;;5057341;28;20645;-85